Time;durP1;ratioP1;P1;durP2;ratioP2;P2;SDS_P1;SDS_P2;PMS_P1;PMS_P2;Temp;Humidity;BMP_temperature;BMP_pressure;BME280_temperature;BME280_humidity;BME280_pressure;Samples;Min_cycle;Max_cycle;Signal;HPM_P1;HPM_P2
2022/07/26 00:01:42;;;;;;;17.70;2.65;;;18.80;99.90;;;;;;5056800;28;20478;-48
2022/07/26 00:04:08;;;;;;;18.10;2.63;;;18.80;99.90;;;;;;5062451;28;20039;-48
2022/07/26 00:06:33;;;;;;;12.88;2.58;;;18.80;99.90;;;;;;5070493;28;20059;-48
2022/07/26 00:08:59;;;;;;;11.48;1.75;;;18.80;99.90;;;;;;5070876;28;20672;-49
2022/07/26 00:11:25;;;;;;;11.82;2.58;;;18.70;99.90;;;;;;5069223;28;20097;-48
2022/07/26 00:13:51;;;;;;;10.15;2.33;;;18.70;99.90;;;;;;5060504;28;20056;-49
2022/07/26 00:16:17;;;;;;;20.50;3.25;;;18.70;99.90;;;;;;5070811;28;20044;-47
2022/07/26 00:18:43;;;;;;;;;;;18.70;99.90;;;;;;5068411;28;20044;-48
2022/07/26 00:21:08;;;;;;;14.35;2.55;;;18.70;99.90;;;;;;5070953;28;20404;-52
2022/07/26 00:23:34;;;;;;;11.52;2.38;;;18.70;99.90;;;;;;5064470;28;20037;-54
2022/07/26 00:25:59;;;;;;;13.35;2.42;;;18.70;99.90;;;;;;5065076;28;20068;-51
2022/07/26 00:28:25;;;;;;;21.65;3.45;;;18.70;99.90;;;;;;5056064;28;20036;-53
2022/07/26 00:30:51;;;;;;;13.23;2.67;;;18.70;99.90;;;;;;5055990;28;20394;-55
2022/07/26 00:33:16;;;;;;;14.52;2.88;;;18.70;99.90;;;;;;5065552;28;20037;-53
2022/07/26 00:35:42;;;;;;;15.32;3.15;;;18.70;99.90;;;;;;5060393;28;20037;-53
2022/07/26 00:38:07;;;;;;;16.95;2.35;;;18.70;99.90;;;;;;5054377;28;20132;-52
2022/07/26 00:40:33;;;;;;;14.10;3.03;;;18.70;99.90;;;;;;5052146;28;20045;-53
2022/07/26 00:42:59;;;;;;;18.83;2.97;;;18.70;99.90;;;;;;5056310;28;20033;-54
2022/07/26 00:45:26;;;;;;;14.98;3.20;;;18.70;99.90;;;;;;5052758;28;20033;-54
2022/07/26 00:47:52;;;;;;;17.80;3.83;;;18.70;99.90;;;;;;5052560;28;20621;-54
2022/07/26 00:50:18;;;;;;;10.57;2.85;;;18.70;99.90;;;;;;5067947;28;20287;-54
2022/07/26 00:52:46;;;;;;;7.82;2.17;;;18.70;99.90;;;;;;5059814;28;20044;-54
2022/07/26 00:55:12;;;;;;;16.38;2.92;;;18.60;99.90;;;;;;5052921;28;20052;-54
2022/07/26 00:57:38;;;;;;;17.92;2.55;;;18.70;99.90;;;;;;5052682;28;20036;-53
2022/07/26 01:00:06;;;;;;;12.00;1.85;;;18.60;99.90;;;;;;5065040;28;20044;-54
2022/07/26 01:02:32;;;;;;;22.02;3.97;;;18.60;99.90;;;;;;5062539;28;20052;-54
2022/07/26 01:04:57;;;;;;;12.30;2.05;;;18.60;99.90;;;;;;5058010;28;20033;-53
2022/07/26 01:07:23;;;;;;;;;;;18.60;99.90;;;;;;5054810;28;20048;-54
2022/07/26 01:09:48;;;;;;;20.80;2.90;;;18.60;99.90;;;;;;5063580;28;19967;-54
2022/07/26 01:12:14;;;;;;;11.90;2.28;;;18.60;99.90;;;;;;5054778;28;20068;-54
2022/07/26 01:14:46;;;;;;;14.25;3.00;;;18.50;99.90;;;;;;5063102;28;20518;-53
2022/07/26 01:17:12;;;;;;;15.00;2.75;;;18.50;99.90;;;;;;5051619;28;20041;-54
2022/07/26 01:19:39;;;;;;;16.65;2.72;;;18.50;99.90;;;;;;5053475;28;20033;-54
2022/07/26 01:22:05;;;;;;;17.15;3.28;;;18.50;99.90;;;;;;5067629;28;20041;-54
2022/07/26 01:24:31;;;;;;;14.40;3.80;;;18.50;99.90;;;;;;5064858;28;20032;-54
2022/07/26 01:26:56;;;;;;;17.23;3.67;;;18.50;99.90;;;;;;5068444;28;20559;-54
2022/07/26 01:29:25;;;;;;;16.35;2.63;;;18.40;99.90;;;;;;5067902;28;20028;-54
2022/07/26 01:31:51;;;;;;;16.10;2.65;;;18.40;99.90;;;;;;5043615;28;20036;-53
2022/07/26 01:34:17;;;;;;;16.63;2.95;;;18.40;99.90;;;;;;5060897;28;20036;-54
2022/07/26 01:36:43;;;;;;;18.63;4.32;;;18.40;99.90;;;;;;5066415;28;20040;-54
2022/07/26 01:39:09;;;;;;;20.00;3.17;;;18.30;99.90;;;;;;5062151;28;20037;-54
2022/07/26 01:41:34;;;;;;;13.75;2.30;;;18.30;99.90;;;;;;5052371;28;20028;-54
2022/07/26 01:44:00;;;;;;;14.05;2.50;;;18.20;99.90;;;;;;5050598;28;20147;-54
2022/07/26 01:46:26;;;;;;;17.90;3.33;;;18.20;99.90;;;;;;5051298;28;20084;-51
2022/07/26 01:48:51;;;;;;;11.85;2.00;;;18.20;99.90;;;;;;5050932;28;20041;-53
2022/07/26 01:51:17;;;;;;;20.02;2.95;;;18.10;99.90;;;;;;5056031;28;20400;-54
2022/07/26 01:53:46;;;;;;;15.40;2.55;;;18.10;99.90;;;;;;5068437;28;20582;-54
2022/07/26 01:56:12;;;;;;;10.05;2.47;;;18.10;99.90;;;;;;5066844;28;20041;-54
2022/07/26 01:58:39;;;;;;;14.45;4.93;;;18.10;99.90;;;;;;5068803;28;20048;-54
2022/07/26 02:01:05;;;;;;;13.70;2.97;;;18.10;99.90;;;;;;5065809;28;20126;-52
2022/07/26 02:03:30;;;;;;;12.30;2.65;;;18.10;99.90;;;;;;5059790;28;20072;-54
2022/07/26 02:05:56;;;;;;;13.32;2.63;;;18.10;99.90;;;;;;5058012;28;20037;-54
2022/07/26 02:08:22;;;;;;;15.50;3.10;;;18.10;99.90;;;;;;5056280;28;20059;-54
2022/07/26 02:10:59;;;;;;;13.20;3.25;;;18.10;99.90;;;;;;5055241;28;20045;-54
2022/07/26 02:13:27;;;;;;;10.63;2.72;;;18.00;99.90;;;;;;5036904;28;20200;-54
2022/07/26 02:15:52;;;;;;;13.07;3.05;;;18.00;99.90;;;;;;5056605;28;20045;-54
2022/07/26 02:18:18;;;;;;;9.93;1.98;;;18.00;99.90;;;;;;5051386;28;20292;-54
2022/07/26 02:20:43;;;;;;;17.25;3.17;;;18.00;99.90;;;;;;5067609;28;20040;-54
2022/07/26 02:23:09;;;;;;;13.65;2.60;;;17.90;99.90;;;;;;5062264;28;20065;-52
2022/07/26 02:25:35;;;;;;;23.42;3.97;;;17.90;99.90;;;;;;5057576;28;20032;-53
2022/07/26 02:28:00;;;;;;;16.17;2.80;;;17.90;99.90;;;;;;5059626;28;20044;-52
2022/07/26 02:30:26;;;;;;;17.80;4.00;;;17.90;99.90;;;;;;5053722;28;20051;-54
2022/07/26 02:32:52;;;;;;;16.27;3.13;;;17.80;99.90;;;;;;5069616;28;20114;-54
2022/07/26 02:35:17;;;;;;;19.88;3.33;;;17.80;99.90;;;;;;5065123;28;20112;-55
2022/07/26 02:37:43;;;;;;;13.00;2.75;;;17.80;99.90;;;;;;5055476;28;20498;-54
2022/07/26 02:40:10;;;;;;;17.67;4.03;;;17.80;99.90;;;;;;5061413;28;20040;-52
2022/07/26 02:42:36;;;;;;;22.58;5.03;;;17.80;99.90;;;;;;5069923;28;20493;-53
2022/07/26 02:45:01;;;;;;;14.07;3.05;;;17.80;99.90;;;;;;5057071;28;21260;-52
2022/07/26 02:47:27;;;;;;;17.17;3.80;;;17.80;99.90;;;;;;5050248;28;20040;-53
2022/07/26 02:49:52;;;;;;;16.13;3.70;;;17.80;99.90;;;;;;5055684;28;20044;-53
2022/07/26 02:52:19;;;;;;;16.90;3.55;;;17.80;99.90;;;;;;5054302;28;20379;-51
2022/07/26 02:54:45;;;;;;;19.08;3.22;;;17.80;99.90;;;;;;5056362;28;20068;-54
2022/07/26 02:57:12;;;;;;;19.92;3.10;;;17.80;99.90;;;;;;5072614;28;20064;-53
2022/07/26 02:59:38;;;;;;;12.77;3.38;;;17.80;99.90;;;;;;5070722;28;20068;-52
2022/07/26 03:02:03;;;;;;;21.48;3.78;;;17.80;99.90;;;;;;5059551;28;20075;-52
2022/07/26 03:04:29;;;;;;;13.23;3.55;;;17.80;99.90;;;;;;5054656;28;20040;-53
2022/07/26 03:06:54;;;;;;;19.55;3.65;;;17.70;99.90;;;;;;5064846;28;20112;-53
2022/07/26 03:09:20;;;;;;;11.25;3.17;;;17.70;99.90;;;;;;5054753;28;20075;-53
2022/07/26 03:11:45;;;;;;;11.98;3.33;;;17.70;99.90;;;;;;5058729;28;20045;-51
2022/07/26 03:14:11;;;;;;;14.35;3.25;;;17.70;99.90;;;;;;5053099;28;20039;-51
2022/07/26 03:16:37;;;;;;;16.05;3.78;;;17.70;99.90;;;;;;5066100;28;20041;-53
2022/07/26 03:19:03;;;;;;;18.02;4.05;;;17.70;99.90;;;;;;5053756;28;20047;-54
2022/07/26 03:21:28;;;;;;;19.08;3.88;;;17.70;99.90;;;;;;5065402;28;20033;-51
2022/07/26 03:23:54;;;;;;;10.73;3.45;;;17.70;99.90;;;;;;5052944;28;20029;-50
2022/07/26 03:26:20;;;;;;;15.25;3.95;;;17.70;99.90;;;;;;5066275;28;20036;-52
2022/07/26 03:28:45;;;;;;;16.20;2.95;;;17.80;99.90;;;;;;5055193;28;20036;-54
2022/07/26 03:31:12;;;;;;;17.08;4.78;;;17.80;99.90;;;;;;5057085;28;20032;-54
2022/07/26 03:33:38;;;;;;;14.18;3.35;;;17.80;99.90;;;;;;5063431;28;20421;-48
2022/07/26 03:36:04;;;;;;;14.13;3.42;;;17.80;99.90;;;;;;5062858;28;20036;-53
2022/07/26 03:38:30;;;;;;;13.57;3.58;;;17.80;99.90;;;;;;5071472;28;20475;-54
2022/07/26 03:40:56;;;;;;;20.00;4.55;;;17.80;99.90;;;;;;5060705;28;20040;-51
2022/07/26 03:43:21;;;;;;;20.00;4.85;;;17.80;99.90;;;;;;5065899;28;20056;-52
2022/07/26 03:45:47;;;;;;;22.55;4.78;;;17.80;99.90;;;;;;5052638;28;20441;-49
2022/07/26 03:48:13;;;;;;;15.25;3.70;;;17.80;99.90;;;;;;5054935;28;20075;-52
2022/07/26 03:50:38;;;;;;;15.13;3.17;;;17.90;99.90;;;;;;5053229;28;20043;-53
2022/07/26 03:53:04;;;;;;;22.38;4.88;;;17.80;99.90;;;;;;5057305;28;20048;-51
2022/07/26 03:58:14;;;;;;;11.48;4.00;;;17.90;99.90;;;;;;5064526;28;20045;-52
2022/07/26 04:00:39;;;;;;;12.93;3.65;;;17.90;99.90;;;;;;5070840;28;20120;-54
2022/07/26 04:03:05;;;;;;;13.32;3.75;;;17.90;99.90;;;;;;5066058;28;20033;-51
2022/07/26 04:05:30;;;;;;;13.82;3.63;;;17.80;99.90;;;;;;5065131;28;20032;-53
2022/07/26 04:07:56;;;;;;;14.77;4.10;;;17.80;99.90;;;;;;5059790;28;20051;-51
2022/07/26 04:10:22;;;;;;;12.85;3.25;;;17.80;99.90;;;;;;5066039;28;20055;-52
2022/07/26 04:12:49;;;;;;;12.20;3.47;;;17.80;99.90;;;;;;5061414;28;20041;-52
2022/07/26 04:15:15;;;;;;;15.18;4.07;;;17.80;99.90;;;;;;5054336;28;20040;-51
2022/07/26 04:17:42;;;;;;;13.77;3.95;;;17.80;99.90;;;;;;5061928;28;20055;-50
2022/07/26 04:20:09;;;;;;;20.38;4.35;;;17.80;99.90;;;;;;5060205;28;20041;-53
2022/07/26 04:22:36;;;;;;;11.23;3.78;;;17.80;99.90;;;;;;5059931;28;20115;-51
2022/07/26 04:25:03;;;;;;;17.92;3.92;;;17.70;99.90;;;;;;5063454;28;20033;-54
2022/07/26 04:27:29;;;;;;;16.77;4.03;;;17.70;99.90;;;;;;5056387;28;20044;-49
2022/07/26 04:29:55;;;;;;;14.25;4.15;;;17.70;99.90;;;;;;5053357;28;20033;-53
2022/07/26 04:32:20;;;;;;;15.25;3.47;;;17.70;99.90;;;;;;5057863;28;20036;-51
2022/07/26 04:34:46;;;;;;;12.05;3.95;;;17.70;99.90;;;;;;5069441;28;20167;-54
2022/07/26 04:37:11;;;;;;;9.43;3.35;;;17.70;99.90;;;;;;5062915;28;20119;-53
2022/07/26 04:39:37;;;;;;;12.88;3.42;;;17.70;99.90;;;;;;5057094;28;20127;-50
2022/07/26 04:42:03;;;;;;;8.30;3.28;;;17.70;99.90;;;;;;5055604;28;20029;-51
2022/07/26 04:44:28;;;;;;;9.43;2.00;;;17.80;99.90;;;;;;5053692;28;20037;-54
2022/07/26 04:46:54;;;;;;;5.53;1.55;;;17.80;99.90;;;;;;5061627;28;20112;-54
2022/07/26 04:49:19;;;;;;;10.00;1.95;;;17.80;99.90;;;;;;5062680;28;20040;-52
2022/07/26 04:51:45;;;;;;;10.80;2.53;;;17.80;99.90;;;;;;5064129;28;20067;-51
2022/07/26 04:54:10;;;;;;;7.32;1.55;;;17.80;99.90;;;;;;5069298;28;20052;-49
2022/07/26 04:56:36;;;;;;;11.25;1.90;;;17.80;99.90;;;;;;5064280;28;20549;-53
2022/07/26 04:59:02;;;;;;;6.03;1.65;;;17.80;99.90;;;;;;5051381;28;20028;-50
2022/07/26 05:01:27;;;;;;;7.22;1.95;;;17.80;99.90;;;;;;5051605;28;20391;-52
2022/07/26 05:03:53;;;;;;;6.15;1.50;;;17.80;99.90;;;;;;5052418;28;20036;-53
2022/07/26 05:06:18;;;;;;;7.82;2.45;;;17.80;99.90;;;;;;5070928;28;20033;-50
2022/07/26 05:08:44;;;;;;;9.00;2.17;;;17.80;99.90;;;;;;5054701;28;20487;-52
2022/07/26 05:11:10;;;;;;;9.63;1.60;;;17.90;99.90;;;;;;5051977;28;20051;-51
2022/07/26 05:13:35;;;;;;;9.73;1.85;;;17.90;99.90;;;;;;5051572;28;20337;-53
2022/07/26 05:16:01;;;;;;;8.25;1.25;;;17.90;99.90;;;;;;5051358;28;20045;-53
2022/07/26 05:18:28;;;;;;;7.65;1.73;;;17.90;99.90;;;;;;5057433;28;20432;-53
2022/07/26 05:20:54;;;;;;;6.40;1.40;;;17.90;99.90;;;;;;5064055;28;20181;-49
2022/07/26 05:23:20;;;;;;;7.15;1.00;;;18.00;99.90;;;;;;5051720;28;20716;-50
2022/07/26 05:25:46;;;;;;;6.00;1.42;;;18.00;99.90;;;;;;5052555;28;20041;-54
2022/07/26 05:28:11;;;;;;;3.75;1.13;;;18.10;99.90;;;;;;5057003;28;20036;-54
2022/07/26 05:30:37;;;;;;;6.40;1.08;;;18.10;99.90;;;;;;5063282;28;20383;-50
2022/07/26 05:33:03;;;;;;;3.30;1.33;;;18.10;99.90;;;;;;5061207;28;20048;-49
2022/07/26 05:35:28;;;;;;;6.70;1.15;;;18.20;99.90;;;;;;5060484;28;20044;-52
2022/07/26 05:37:55;;;;;;;6.43;1.27;;;18.20;99.90;;;;;;5054611;28;20044;-54
2022/07/26 05:40:21;;;;;;;8.77;0.95;;;18.20;99.90;;;;;;5051264;28;20079;-54
2022/07/26 05:42:47;;;;;;;6.22;0.70;;;18.20;99.90;;;;;;5050814;28;20481;-49
2022/07/26 05:45:12;;;;;;;7.95;1.23;;;18.30;99.90;;;;;;5049929;28;20035;-53
2022/07/26 05:47:38;;;;;;;5.93;0.60;;;18.30;99.90;;;;;;5050868;28;20047;-54
2022/07/26 05:50:05;;;;;;;6.18;0.52;;;18.30;99.90;;;;;;5050091;28;20044;-51
2022/07/26 05:52:31;;;;;;;4.40;0.88;;;18.30;99.90;;;;;;5050401;28;20052;-52
2022/07/26 05:54:57;;;;;;;6.97;0.63;;;18.30;99.90;;;;;;5063214;28;20044;-53
2022/07/26 05:57:23;;;;;;;6.80;1.15;;;18.40;99.90;;;;;;5059087;28;20094;-54
2022/07/26 05:59:49;;;;;;;6.70;0.95;;;18.40;99.90;;;;;;5052254;28;20036;-49
2022/07/26 06:02:14;;;;;;;2.63;0.40;;;18.40;99.90;;;;;;5048815;28;20037;-50
2022/07/26 06:04:40;;;;;;;6.47;0.75;;;18.40;99.90;;;;;;5050234;28;20116;-52
2022/07/26 06:07:06;;;;;;;7.45;0.65;;;18.40;99.90;;;;;;5049437;28;20033;-54
2022/07/26 06:09:31;;;;;;;3.58;0.40;;;18.40;99.90;;;;;;5051377;28;20060;-54
2022/07/26 06:11:57;;;;;;;10.60;0.65;;;18.40;99.90;;;;;;5050500;28;20063;-50
2022/07/26 06:14:23;;;;;;;5.75;0.55;;;18.40;99.90;;;;;;5053489;28;20032;-51
2022/07/26 06:16:49;;;;;;;;;;;18.40;99.90;;;;;;5045010;28;20403;-53
2022/07/26 06:19:14;;;;;;;3.72;0.55;;;18.30;99.90;;;;;;5050916;28;19928;-53
2022/07/26 06:21:41;;;;;;;7.75;0.63;;;18.40;99.90;;;;;;5051664;28;20468;-52
2022/07/26 06:24:07;;;;;;;4.45;0.50;;;18.40;99.90;;;;;;5048377;28;20045;-48
2022/07/26 06:26:32;;;;;;;4.40;0.30;;;18.40;99.90;;;;;;5046604;28;20516;-50
2022/07/26 06:28:58;;;;;;;4.75;0.47;;;18.40;99.90;;;;;;5048542;28;20076;-54
2022/07/26 06:31:24;;;;;;;1.55;0.55;;;18.50;99.90;;;;;;5048706;28;20033;-49
2022/07/26 06:33:50;;;;;;;13.48;0.82;;;18.50;99.90;;;;;;5048867;28;20463;-51
2022/07/26 06:36:15;;;;;;;2.10;0.40;;;18.50;99.90;;;;;;5049374;28;20498;-48
2022/07/26 06:38:56;;;;;;;3.88;0.45;;;18.50;99.90;;;;;;5018641;28;20044;-47
2022/07/26 06:41:22;;;;;;;7.10;0.70;;;18.60;99.90;;;;;;5059034;28;20101;-51
2022/07/26 06:43:47;;;;;;;4.60;0.20;;;18.50;99.90;;;;;;5039119;28;20591;-50
2022/07/26 06:46:13;;;;;;;3.67;0.20;;;18.60;99.90;;;;;;5045181;28;20040;-50
2022/07/26 06:48:39;;;;;;;0.90;0.20;;;18.60;99.90;;;;;;5060693;28;20032;-50
2022/07/26 06:51:04;;;;;;;6.28;0.63;;;18.60;99.90;;;;;;5061376;28;20045;-51
2022/07/26 06:53:30;;;;;;;2.92;0.17;;;18.60;99.90;;;;;;5056749;28;20474;-53
2022/07/26 06:55:55;;;;;;;5.18;0.20;;;18.60;99.90;;;;;;5061167;28;20166;-52
2022/07/26 06:58:21;;;;;;;4.50;0.32;;;18.70;99.90;;;;;;5059334;28;20498;-49
2022/07/26 07:00:47;;;;;;;;;;;18.70;99.90;;;;;;5062032;28;20178;-49
2022/07/26 07:03:12;;;;;;;4.68;0.20;;;18.70;99.90;;;;;;5059201;28;19916;-48
2022/07/26 07:05:38;;;;;;;1.08;0.20;;;18.70;99.90;;;;;;5059619;28;20035;-52
2022/07/26 07:08:04;;;;;;;5.40;0.22;;;18.80;99.90;;;;;;5054263;28;20037;-51
2022/07/26 07:10:29;;;;;;;4.90;0.20;;;18.80;99.90;;;;;;5058925;28;20671;-51
2022/07/26 07:12:55;;;;;;;6.50;0.20;;;18.80;99.90;;;;;;5057588;28;20036;-50
2022/07/26 07:15:20;;;;;;;5.47;0.95;;;18.70;99.90;;;;;;5055628;28;20040;-49
2022/07/26 07:17:47;;;;;;;2.95;0.20;;;18.60;99.90;;;;;;5055341;28;20047;-48
2022/07/26 07:20:12;;;;;;;2.88;0.20;;;18.50;99.90;;;;;;5062330;28;20080;-48
2022/07/26 07:22:38;;;;;;;5.93;1.27;;;18.60;99.90;;;;;;5060528;28;21228;-47
2022/07/26 07:25:04;;;;;;;2.90;0.20;;;18.50;99.90;;;;;;5062419;28;20110;-50
2022/07/26 07:27:30;;;;;;;2.88;0.40;;;18.50;99.90;;;;;;5058386;28;20110;-50
2022/07/26 07:29:55;;;;;;;4.47;0.30;;;18.50;99.90;;;;;;5059773;28;20119;-47
2022/07/26 07:32:21;;;;;;;9.32;0.20;;;18.50;99.90;;;;;;5058111;28;20457;-50
2022/07/26 07:34:47;;;;;;;4.43;0.20;;;18.50;99.90;;;;;;5055818;28;20419;-48
2022/07/26 07:37:13;;;;;;;7.05;0.68;;;18.50;99.90;;;;;;5052670;28;20094;-49
2022/07/26 07:39:38;;;;;;;4.68;0.57;;;18.50;99.90;;;;;;5056966;28;20044;-49
2022/07/26 07:42:04;;;;;;;;;;;18.60;99.90;;;;;;5063461;28;20025;-52
2022/07/26 07:44:30;;;;;;;5.72;0.20;;;18.60;99.90;;;;;;5056928;28;20462;-51
2022/07/26 07:46:55;;;;;;;5.55;0.20;;;18.60;99.90;;;;;;5065750;28;20072;-50
2022/07/26 07:49:21;;;;;;;2.42;0.40;;;18.60;99.90;;;;;;5059866;28;20281;-48
2022/07/26 07:51:47;;;;;;;4.70;0.60;;;18.60;99.90;;;;;;5066234;28;20036;-47
2022/07/26 07:54:14;;;;;;;2.72;0.28;;;18.60;99.90;;;;;;5064256;28;20098;-50
2022/07/26 07:56:41;;;;;;;2.03;0.20;;;18.60;99.90;;;;;;5067064;28;20353;-50
2022/07/26 07:59:07;;;;;;;2.42;0.30;;;18.60;99.90;;;;;;5063868;28;20083;-49
2022/07/26 08:01:32;;;;;;;4.50;0.20;;;18.60;99.90;;;;;;5062097;28;20060;-50
2022/07/26 08:03:58;;;;;;;3.42;0.30;;;18.60;99.90;;;;;;5062358;28;20040;-47
2022/07/26 08:06:23;;;;;;;2.70;0.43;;;18.60;99.90;;;;;;5064911;28;20028;-48
2022/07/26 08:08:49;;;;;;;2.75;0.20;;;18.70;99.90;;;;;;5066404;28;20090;-49
2022/07/26 08:11:15;;;;;;;3.25;0.32;;;18.70;99.90;;;;;;5058578;28;20048;-47
2022/07/26 08:13:40;;;;;;;7.25;0.20;;;18.70;99.90;;;;;;5065230;28;20041;-52
2022/07/26 08:16:06;;;;;;;3.13;0.43;;;18.80;99.90;;;;;;5064693;28;20064;-50
2022/07/26 08:18:32;;;;;;;2.20;0.10;;;18.90;99.90;;;;;;5062317;28;20036;-49
2022/07/26 08:20:58;;;;;;;4.47;0.20;;;19.00;99.90;;;;;;5066431;28;20042;-50
2022/07/26 08:23:23;;;;;;;3.33;0.20;;;19.10;99.90;;;;;;5066973;28;20437;-48
2022/07/26 08:25:49;;;;;;;4.63;0.20;;;19.20;99.90;;;;;;5066087;28;20037;-49
2022/07/26 08:28:15;;;;;;;;;;;19.30;99.90;;;;;;5066017;28;20054;-49
2022/07/26 08:30:41;;;;;;;1.83;0.30;;;19.20;99.90;;;;;;5061261;28;19969;-52
2022/07/26 08:33:06;;;;;;;5.13;0.70;;;19.20;99.90;;;;;;5064099;28;20043;-51
2022/07/26 08:35:32;;;;;;;3.88;0.52;;;19.20;99.90;;;;;;5062593;28;20041;-48
2022/07/26 08:37:58;;;;;;;3.78;0.40;;;19.20;99.90;;;;;;5062168;28;20043;-47
2022/07/26 08:40:23;;;;;;;;;;;19.20;99.90;;;;;;5063068;28;20546;-50
2022/07/26 08:42:54;;;;;;;2.08;0.30;;;19.00;99.90;;;;;;5063262;28;19916;-48
2022/07/26 08:45:22;;;;;;;3.15;0.20;;;19.00;99.90;;;;;;5061585;28;20047;-47
2022/07/26 08:47:48;;;;;;;2.08;0.10;;;18.90;99.90;;;;;;5063293;28;20410;-47
2022/07/26 08:50:13;;;;;;;3.42;0.30;;;18.90;99.90;;;;;;5064180;28;20049;-47
2022/07/26 08:52:40;;;;;;;2.17;0.20;;;18.90;99.90;;;;;;5060243;28;20063;-48
2022/07/26 08:55:06;;;;;;;2.88;0.40;;;18.90;99.90;;;;;;5066342;28;20397;-45
2022/07/26 08:57:32;;;;;;;3.38;0.13;;;18.90;99.90;;;;;;5065060;28;20051;-48
2022/07/26 09:00:13;;;;;;;3.28;0.30;;;18.90;99.90;;;;;;5061871;28;20032;-46
2022/07/26 09:02:42;;;;;;;1.90;0.38;;;19.00;99.90;;;;;;5063642;28;20448;-46
2022/07/26 09:05:08;;;;;;;2.47;0.22;;;19.10;99.90;;;;;;5059621;28;20111;-47
2022/07/26 09:07:38;;;;;;;3.92;0.30;;;19.20;99.90;;;;;;5066475;28;20085;-46
2022/07/26 09:10:07;;;;;;;3.90;0.40;;;19.30;99.90;;;;;;5059377;28;20123;-46
2022/07/26 09:12:34;;;;;;;0.95;0.10;;;19.50;99.90;;;;;;5065960;28;20040;-46
2022/07/26 09:15:01;;;;;;;1.70;0.10;;;19.70;99.90;;;;;;5060980;28;20577;-48
2022/07/26 09:17:41;;;;;;;2.67;0.50;;;19.80;99.90;;;;;;5065494;28;20157;-48
2022/07/26 09:20:12;;;;;;;2.13;0.10;;;19.90;99.90;;;;;;5058369;28;20037;-48
2022/07/26 09:23:07;;;;;;;3.13;0.30;;;20.00;99.90;;;;;;5063788;28;20036;-48
2022/07/26 09:25:35;;;;;;;6.40;0.57;;;20.20;99.90;;;;;;5063230;28;20105;-48
2022/07/26 09:28:01;;;;;;;4.93;0.30;;;20.30;99.90;;;;;;5062805;28;20040;-48
2022/07/26 09:30:29;;;;;;;1.35;0.10;;;20.30;99.90;;;;;;5060627;28;20097;-47
2022/07/26 09:32:56;;;;;;;2.85;0.17;;;20.30;99.90;;;;;;5060546;28;20267;-47
2022/07/26 09:35:21;;;;;;;4.63;0.20;;;20.30;99.90;;;;;;5056347;28;20101;-47
2022/07/26 09:37:47;;;;;;;3.67;0.38;;;20.20;99.70;;;;;;5056197;28;20408;-47
2022/07/26 09:40:14;;;;;;;;;;;20.20;99.80;;;;;;5047270;28;20044;-47
2022/07/26 09:42:58;;;;;;;2.30;0.20;;;20.10;99.40;;;;;;5048524;28;20100;-47
2022/07/26 09:45:26;;;;;;;4.28;0.20;;;20.20;99.60;;;;;;5052614;28;20056;-46
2022/07/26 09:47:52;;;;;;;2.70;0.40;;;20.20;99.10;;;;;;5041107;28;20076;-47
2022/07/26 09:50:19;;;;;;;;;;;20.10;99.30;;;;;;5052877;28;20444;-47
2022/07/26 09:53:01;;;;;;;4.15;0.20;;;20.00;98.60;;;;;;5063349;28;19917;-47
2022/07/26 09:55:27;;;;;;;2.33;0.38;;;20.00;98.70;;;;;;5060503;28;20037;-47
2022/07/26 09:57:53;;;;;;;1.38;0.10;;;19.90;98.60;;;;;;5057931;28;20111;-47
2022/07/26 10:00:19;;;;;;;3.47;0.20;;;19.90;98.20;;;;;;5056566;28;20057;-47
2022/07/26 10:02:45;;;;;;;1.13;0.15;;;19.80;97.60;;;;;;5057697;28;20304;-49
2022/07/26 10:05:10;;;;;;;12.88;0.30;;;19.70;97.60;;;;;;5058836;28;20557;-46
2022/07/26 10:07:36;;;;;;;;;;;19.70;97.30;;;;;;5060980;28;20036;-46
2022/07/26 10:10:11;;;;;;;3.50;0.35;;;19.60;97.00;;;;;;5063020;28;20281;-47
2022/07/26 10:12:37;;;;;;;2.58;0.20;;;19.60;97.70;;;;;;5060790;28;20044;-46
2022/07/26 10:15:03;;;;;;;0.93;0.10;;;19.50;97.80;;;;;;5064933;28;20036;-47
2022/07/26 10:17:29;;;;;;;4.57;0.20;;;19.60;97.80;;;;;;5060839;28;20036;-49
2022/07/26 10:20:06;;;;;;;1.42;0.22;;;19.60;97.80;;;;;;5061813;28;20575;-47
2022/07/26 10:22:45;;;;;;;2.58;0.10;;;19.60;97.80;;;;;;5058119;28;21098;-48
2022/07/26 10:25:16;;;;;;;2.10;0.17;;;19.70;97.80;;;;;;5056230;28;20108;-47
2022/07/26 10:27:44;;;;;;;3.67;0.30;;;19.90;98.00;;;;;;5059001;28;20099;-50
2022/07/26 10:30:18;;;;;;;2.53;0.20;;;20.00;97.80;;;;;;5053340;28;20059;-48
2022/07/26 10:32:50;;;;;;;5.18;0.30;;;20.20;97.80;;;;;;5064419;28;20085;-48
2022/07/26 10:35:40;;;;;;;3.80;0.40;;;20.40;97.60;;;;;;5061411;28;20427;-47
2022/07/26 10:38:21;;;;;;;4.68;0.80;;;20.50;97.40;;;;;;5064192;28;20048;-47
2022/07/26 10:41:03;;;;;;;3.83;0.17;;;20.60;97.80;;;;;;5060468;28;20037;-48
2022/07/26 10:43:29;;;;;;;5.28;0.30;;;20.80;98.00;;;;;;5059718;28;20430;-47
2022/07/26 10:46:13;;;;;;;;;;;20.80;97.60;;;;;;5060757;28;20120;-50
2022/07/26 10:48:54;;;;;;;2.13;0.63;;;20.90;96.50;;;;;;5062318;28;20381;-48
2022/07/26 10:51:35;;;;;;;1.42;0.17;;;20.90;96.40;;;;;;5063690;28;20537;-48
2022/07/26 10:54:11;;;;;;;2.17;0.40;;;21.00;96.40;;;;;;5060668;28;20052;-48
2022/07/26 10:56:37;;;;;;;1.55;0.30;;;20.90;96.30;;;;;;5056579;28;20048;-47
2022/07/26 10:59:04;;;;;;;4.13;0.50;;;21.00;96.40;;;;;;5054018;28;20036;-49
2022/07/26 11:01:41;;;;;;;4.03;0.70;;;20.90;96.50;;;;;;5062060;28;20032;-47
2022/07/26 11:04:22;;;;;;;2.45;0.43;;;20.80;96.60;;;;;;5062222;28;20037;-47
2022/07/26 11:06:48;;;;;;;3.42;0.50;;;20.70;96.90;;;;;;5060364;28;20043;-48
2022/07/26 11:09:14;;;;;;;;;;;20.70;96.80;;;;;;5059780;28;20045;-47
2022/07/26 11:11:40;;;;;;;6.10;0.37;;;20.60;96.50;;;;;;5062573;28;19947;-47
2022/07/26 11:14:10;;;;;;;;;;;20.50;96.80;;;;;;5059818;28;20491;-48
2022/07/26 11:16:41;;;;;;;3.30;0.50;;;20.40;96.00;;;;;;5061878;28;20017;-47
2022/07/26 11:19:18;;;;;;;2.20;0.50;;;20.40;96.40;;;;;;5066172;28;20037;-47
2022/07/26 11:21:45;;;;;;;6.65;0.40;;;20.30;96.40;;;;;;5061318;28;20425;-49
2022/07/26 11:24:11;;;;;;;4.07;0.30;;;20.30;96.50;;;;;;5064426;28;21177;-47
2022/07/26 11:26:44;;;;;;;2.22;0.50;;;20.30;96.10;;;;;;5067743;28;20036;-47
2022/07/26 11:29:11;;;;;;;0.95;0.30;;;20.30;96.20;;;;;;5055072;28;20060;-48
2022/07/26 11:31:42;;;;;;;4.07;0.38;;;20.30;96.40;;;;;;5067317;28;20410;-49
2022/07/26 11:34:19;;;;;;;2.70;0.35;;;20.30;96.30;;;;;;5060404;28;20047;-48
2022/07/26 11:36:45;;;;;;;;;;;20.30;96.20;;;;;;5062904;28;20032;-47
2022/07/26 11:39:13;;;;;;;7.85;1.27;;;20.30;96.40;;;;;;5063365;28;20017;-50
2022/07/26 11:41:40;;;;;;;7.47;1.10;;;20.30;96.80;;;;;;5066026;28;20486;-47
2022/07/26 11:44:20;;;;;;;21.00;1.80;;;20.30;96.90;;;;;;5061644;28;20047;-47
2022/07/26 11:46:47;;;;;;;8.23;1.17;;;20.20;97.20;;;;;;5065728;28;20044;-48
2022/07/26 11:49:30;;;;;;;5.20;0.77;;;20.10;97.20;;;;;;5057018;28;20033;-49
2022/07/26 11:51:58;;;;;;;7.28;1.58;;;20.00;97.20;;;;;;5052728;28;20086;-47
2022/07/26 11:54:25;;;;;;;10.05;1.23;;;19.90;97.30;;;;;;5064547;28;20043;-47
2022/07/26 11:56:55;;;;;;;9.27;1.05;;;19.90;97.50;;;;;;5064804;28;20079;-48
2022/07/26 11:59:24;;;;;;;7.60;1.23;;;19.90;97.60;;;;;;5056364;28;20045;-48
2022/07/26 12:01:50;;;;;;;9.73;0.90;;;19.80;97.20;;;;;;5061257;28;20063;-47
2022/07/26 12:04:24;;;;;;;13.02;1.20;;;19.70;96.70;;;;;;5055358;28;20056;-48
2022/07/26 12:06:54;;;;;;;9.93;1.35;;;19.70;96.60;;;;;;5058789;28;20029;-46
2022/07/26 12:09:36;;;;;;;7.60;0.75;;;19.80;96.60;;;;;;5065240;28;20044;-48
2022/07/26 12:12:08;;;;;;;9.27;0.60;;;19.90;96.40;;;;;;5052178;28;20047;-49
2022/07/26 12:14:38;;;;;;;8.85;0.68;;;19.90;96.50;;;;;;5063287;28;20041;-53
2022/07/26 12:17:10;;;;;;;5.85;1.13;;;20.00;96.80;;;;;;5062276;28;20121;-48
2022/07/26 12:19:36;;;;;;;11.88;1.38;;;20.10;96.70;;;;;;5063588;28;20045;-48
2022/07/26 12:22:11;;;;;;;;;;;20.20;96.60;;;;;;5055015;28;20040;-52
2022/07/26 12:24:51;;;;;;;7.00;0.93;;;20.20;96.20;;;;;;5060926;28;19989;-47
2022/07/26 12:27:19;;;;;;;6.68;0.90;;;20.10;96.30;;;;;;5057170;28;20071;-50
2022/07/26 12:29:48;;;;;;;5.95;0.80;;;20.10;96.50;;;;;;5053608;28;20029;-50
2022/07/26 12:32:16;;;;;;;7.88;1.60;;;20.00;96.90;;;;;;5064589;28;20090;-47
2022/07/26 12:34:54;;;;;;;7.15;1.08;;;20.00;97.00;;;;;;5049600;28;20041;-48
2022/07/26 12:37:20;;;;;;;7.03;1.33;;;20.10;97.50;;;;;;5062979;28;20036;-47
2022/07/26 12:40:06;;;;;;;10.32;1.20;;;20.20;97.00;;;;;;5061069;28;20079;-47
2022/07/26 12:42:33;;;;;;;10.52;1.15;;;20.30;96.30;;;;;;5061686;28;20072;-47
2022/07/26 12:45:00;;;;;;;5.85;0.70;;;20.30;96.20;;;;;;5059274;28;20271;-53
2022/07/26 12:47:26;;;;;;;7.93;0.88;;;20.30;95.60;;;;;;5054216;28;20116;-47
2022/07/26 12:49:53;;;;;;;4.40;0.70;;;20.30;95.40;;;;;;5061300;28;20134;-51
2022/07/26 12:52:20;;;;;;;8.23;1.02;;;20.30;95.30;;;;;;5062661;28;20036;-51